KELZ/ELZ METAR and TAF weather

Enter ICAO airport designator
Station Type Date Time Source
KELZ METAR 2018/09/21 23:24 UTC NOAA

KELZ 212324Z AUTO 28026G40KT 2 1/2SM +RA SQ FEW035 SCT050 BKN070 23/19 A2993 RMK AO2 PK WND 28040/2322 LTG DSNT W-NE RAB22 PRESRR P0006 T02280189


Station Type Date Time Source
KELZ Decoded METAR 2018/09/21 23:24 UTC NOAA

WELLSVILLE MUNICIPAL AIRPORT, NY, United States (KELZ) 42-06N 077-60W 646M
Sep 21, 2018 - 07:24 PM EDT / 2018.09.21 2324 UTC
Wind: from the W (280 degrees) at 30 MPH (26 KT) gusting to 46 MPH (40 KT):0
Visibility: 2 1/2 mile(s):0
Sky conditions: mostly cloudy
Weather: heavy rain; squalls; Lightning observed
Precipitation last hour: 0.06 inches
Temperature: 73.0 F (22.8 C)
Dew Point: 66.0 F (18.9 C)
Relative Humidity: 78%
Pressure (altimeter): 29.93 in. Hg (1013 hPa)
Pressure tendency: rising rapidly
ob: KELZ 212324Z AUTO 28026G40KT 2 1/2SM +RA SQ FEW035 SCT050 BKN070 23/19 A2993 RMK AO2 PK WND 28040/2322 LTG DSNT W-NE RAB22 PRESRR P0006 T02280189
cycle: 23

Station Type Date Time Source
KELZ TAF UTC NOAA

Error!


Example: see airport list